VOE2MX LFBD-LFST
Flight info
| Callsign | VOE2MX |
|---|---|
| Flight time | 1h 5m |
| Altitude | 34000 |
| Route | OBLOC DCT UVELI DCT LMG DCT BEBIX DCT GUERE DCT KUKOR/N0390F180 G21 RLP/N0396F190 R11 EPL |
| Aircraft | A320/M-SDE3FGHIRWY/LB1 |
Departure
| Time | 2026-05-05 20:54 |
|---|---|
| Airport | Bordeaux–Mérignac Airport (LFBD) |
Arrival
| Time | 2026-05-05 21:59 |
|---|---|
| Airport | Strasbourg Airport (LFST) |
| Time | Latitude | Longitude | Altitude | Speed | Heading |
|---|---|---|---|---|---|
| 2026-05-05 20:40 | 44.83187 | -0.70360 | 167 ft | 0 kts | 136° |
| 2026-05-05 20:47 | 44.83191 | -0.70365 | 167 ft | 4 kts | 136° |
| 2026-05-05 20:47 | 44.83211 | -0.70390 | 167 ft | 4 kts | 144° |
| 2026-05-05 20:48 | 44.83234 | -0.70409 | 166 ft | 4 kts | 167° |
| 2026-05-05 20:48 | 44.83255 | -0.70407 | 166 ft | 2 kts | 224° |
| 2026-05-05 20:48 | 44.83256 | -0.70406 | 166 ft | 1 kts | 225° |
| 2026-05-05 20:50 | 44.83244 | -0.70423 | 166 ft | 5 kts | 227° |
| 2026-05-05 20:50 | 44.83207 | -0.70482 | 167 ft | 11 kts | 227° |
| 2026-05-05 20:51 | 44.83231 | -0.70554 | 167 ft | 14 kts | 20° |
| 2026-05-05 20:51 | 44.83318 | -0.70439 | 165 ft | 18 kts | 45° |
| 2026-05-05 20:51 | 44.83405 | -0.70315 | 164 ft | 17 kts | 45° |
| 2026-05-05 20:51 | 44.83488 | -0.70197 | 163 ft | 16 kts | 45° |
| 2026-05-05 20:52 | 44.83564 | -0.70088 | 162 ft | 15 kts | 45° |
| 2026-05-05 20:52 | 44.83643 | -0.70005 | 161 ft | 13 kts | 3° |
| 2026-05-05 20:52 | 44.83727 | -0.70044 | 161 ft | 12 kts | 337° |
| 2026-05-05 20:52 | 44.83796 | -0.70102 | 160 ft | 11 kts | 309° |
| 2026-05-05 20:53 | 44.83807 | -0.70190 | 161 ft | 8 kts | 248° |
| 2026-05-05 20:53 | 44.83784 | -0.70224 | 161 ft | 0 kts | 225° |
| 2026-05-05 20:53 | 44.83654 | -0.70411 | 162 ft | 65 kts | 225° |
| 2026-05-05 20:54 | 44.83181 | -0.71085 | 170 ft | 126 kts | 225° |
| 2026-05-05 20:54 | 44.82443 | -0.72136 | 272 ft | 166 kts | 225° |
| 2026-05-05 20:54 | 44.81636 | -0.73286 | 920 ft | 168 kts | 226° |
| 2026-05-05 20:54 | 44.80815 | -0.74452 | 1725 ft | 167 kts | 228° |
| 2026-05-05 20:55 | 44.79972 | -0.75654 | 2273 ft | 182 kts | 228° |
| 2026-05-05 20:55 | 44.79036 | -0.77002 | 2643 ft | 204 kts | 228° |
| 2026-05-05 20:55 | 44.77995 | -0.78496 | 3122 ft | 221 kts | 228° |
| 2026-05-05 20:55 | 44.76740 | -0.79874 | 3697 ft | 243 kts | 210° |
| 2026-05-05 20:56 | 44.75052 | -0.80586 | 4321 ft | 264 kts | 187° |
| 2026-05-05 20:56 | 44.73199 | -0.80324 | 5199 ft | 274 kts | 164° |
| 2026-05-05 20:56 | 44.71518 | -0.79034 | 6119 ft | 281 kts | 139° |
| 2026-05-05 20:56 | 44.70325 | -0.76849 | 7016 ft | 286 kts | 115° |
| 2026-05-05 20:57 | 44.69840 | -0.74139 | 7896 ft | 288 kts | 93° |
| 2026-05-05 20:57 | 44.69731 | -0.71307 | 8810 ft | 291 kts | 92° |
| 2026-05-05 20:57 | 44.69635 | -0.68481 | 9691 ft | 295 kts | 92° |
| 2026-05-05 20:57 | 44.69539 | -0.65566 | 10324 ft | 307 kts | 92° |
| 2026-05-05 20:58 | 44.69436 | -0.62451 | 10605 ft | 331 kts | 92° |
| 2026-05-05 20:58 | 44.69323 | -0.59108 | 10827 ft | 354 kts | 92° |
| 2026-05-05 20:58 | 44.69199 | -0.55563 | 11255 ft | 368 kts | 93° |
| 2026-05-05 20:58 | 44.69068 | -0.51944 | 11934 ft | 373 kts | 93° |
| 2026-05-05 20:59 | 44.68933 | -0.48289 | 12669 ft | 377 kts | 93° |
| 2026-05-05 20:59 | 44.68796 | -0.44592 | 13415 ft | 380 kts | 93° |
| 2026-05-05 20:59 | 44.68660 | -0.40862 | 14098 ft | 384 kts | 93° |
| 2026-05-05 20:59 | 44.68521 | -0.37093 | 14744 ft | 387 kts | 93° |
| 2026-05-05 21:00 | 44.68377 | -0.33301 | 15398 ft | 390 kts | 93° |
| 2026-05-05 21:00 | 44.68227 | -0.29476 | 16037 ft | 394 kts | 93° |
| 2026-05-05 21:00 | 44.68098 | -0.25619 | 16676 ft | 397 kts | 90° |
| 2026-05-05 21:00 | 44.68403 | -0.21753 | 17306 ft | 400 kts | 77° |
| 2026-05-05 21:01 | 44.69328 | -0.18059 | 17938 ft | 403 kts | 63° |
| 2026-05-05 21:01 | 44.70831 | -0.14721 | 18526 ft | 406 kts | 50° |
| 2026-05-05 21:01 | 44.72843 | -0.11915 | 19058 ft | 409 kts | 37° |
| 2026-05-05 21:01 | 44.75254 | -0.09796 | 19575 ft | 412 kts | 26° |
| 2026-05-05 21:02 | 44.77788 | -0.07969 | 20079 ft | 415 kts | 26° |
| 2026-05-05 21:02 | 44.80370 | -0.06113 | 20578 ft | 418 kts | 26° |
| 2026-05-05 21:02 | 44.82974 | -0.04238 | 21065 ft | 422 kts | 27° |
| 2026-05-05 21:02 | 44.85594 | -0.02342 | 21534 ft | 425 kts | 27° |
| 2026-05-05 21:03 | 44.88236 | -0.00425 | 21984 ft | 428 kts | 26° |
| 2026-05-05 21:03 | 44.90897 | 0.01512 | 22401 ft | 432 kts | 26° |
| 2026-05-05 21:03 | 44.93584 | 0.03471 | 22836 ft | 436 kts | 26° |
| 2026-05-05 21:03 | 44.96285 | 0.05447 | 23264 ft | 439 kts | 27° |
| 2026-05-05 21:04 | 44.99004 | 0.07437 | 23647 ft | 442 kts | 27° |
| 2026-05-05 21:04 | 45.01741 | 0.09437 | 24013 ft | 444 kts | 27° |
| 2026-05-05 21:04 | 45.04422 | 0.11640 | 24370 ft | 446 kts | 34° |
| 2026-05-05 21:04 | 45.06880 | 0.14336 | 24709 ft | 448 kts | 39° |
| 2026-05-05 21:05 | 45.09292 | 0.17145 | 25037 ft | 451 kts | 40° |
| 2026-05-05 21:05 | 45.11723 | 0.19975 | 25362 ft | 453 kts | 40° |
| 2026-05-05 21:05 | 45.14165 | 0.22817 | 25681 ft | 455 kts | 40° |
| 2026-05-05 21:05 | 45.16590 | 0.25639 | 25990 ft | 458 kts | 40° |
| 2026-05-05 21:06 | 45.19057 | 0.28509 | 26291 ft | 460 kts | 40° |
| 2026-05-05 21:06 | 45.21532 | 0.31393 | 26624 ft | 461 kts | 40° |
| 2026-05-05 21:06 | 45.24014 | 0.34295 | 26927 ft | 462 kts | 40° |
| 2026-05-05 21:06 | 45.26501 | 0.37207 | 27208 ft | 464 kts | 40° |
| 2026-05-05 21:07 | 45.28998 | 0.40129 | 27439 ft | 467 kts | 40° |
| 2026-05-05 21:07 | 45.31518 | 0.43078 | 27639 ft | 471 kts | 40° |
| 2026-05-05 21:07 | 45.34052 | 0.46052 | 27875 ft | 473 kts | 40° |
| 2026-05-05 21:07 | 45.36590 | 0.49038 | 28110 ft | 475 kts | 40° |
| 2026-05-05 21:08 | 45.39138 | 0.52041 | 28397 ft | 475 kts | 40° |
| 2026-05-05 21:08 | 45.41673 | 0.55030 | 28791 ft | 473 kts | 40° |
| 2026-05-05 21:08 | 45.44204 | 0.58014 | 29133 ft | 472 kts | 41° |
| 2026-05-05 21:08 | 45.46741 | 0.61004 | 29474 ft | 471 kts | 41° |
| 2026-05-05 21:09 | 45.49235 | 0.63948 | 29807 ft | 471 kts | 41° |
| 2026-05-05 21:09 | 45.51755 | 0.66932 | 30115 ft | 470 kts | 41° |
| 2026-05-05 21:09 | 45.54270 | 0.69920 | 30392 ft | 470 kts | 41° |
| 2026-05-05 21:09 | 45.56787 | 0.72911 | 30664 ft | 470 kts | 41° |
| 2026-05-05 21:10 | 45.59304 | 0.75896 | 30952 ft | 469 kts | 41° |
| 2026-05-05 21:10 | 45.61810 | 0.78874 | 31254 ft | 468 kts | 41° |
| 2026-05-05 21:10 | 45.64321 | 0.81868 | 31462 ft | 470 kts | 41° |
| 2026-05-05 21:10 | 45.66834 | 0.84870 | 31709 ft | 471 kts | 41° |
| 2026-05-05 21:11 | 45.69349 | 0.87871 | 31973 ft | 471 kts | 41° |
| 2026-05-05 21:11 | 45.71865 | 0.90877 | 32245 ft | 471 kts | 41° |
| 2026-05-05 21:11 | 45.74378 | 0.93886 | 32510 ft | 472 kts | 41° |
| 2026-05-05 21:11 | 45.76898 | 0.96908 | 32745 ft | 472 kts | 41° |
| 2026-05-05 21:12 | 45.79380 | 0.99981 | 33029 ft | 471 kts | 45° |
| 2026-05-05 21:12 | 45.81552 | 1.03471 | 33311 ft | 469 kts | 54° |
| 2026-05-05 21:12 | 45.83305 | 1.07338 | 33571 ft | 467 kts | 63° |
| 2026-05-05 21:12 | 45.84796 | 1.11490 | 33821 ft | 468 kts | 64° |
| 2026-05-05 21:13 | 45.86278 | 1.15648 | 33931 ft | 469 kts | 64° |
| 2026-05-05 21:13 | 45.87766 | 1.19820 | 33935 ft | 470 kts | 64° |
| 2026-05-05 21:13 | 45.90758 | 1.28210 | 33948 ft | 471 kts | 65° |
| 2026-05-05 21:14 | 45.93730 | 1.36606 | 33941 ft | 471 kts | 65° |
| 2026-05-05 21:14 | 45.96682 | 1.44948 | 33940 ft | 471 kts | 65° |
| 2026-05-05 21:15 | 45.99644 | 1.53328 | 33933 ft | 470 kts | 65° |
| 2026-05-05 21:15 | 46.02590 | 1.61713 | 33913 ft | 470 kts | 65° |
| 2026-05-05 21:16 | 46.05531 | 1.70118 | 33913 ft | 470 kts | 65° |
| 2026-05-05 21:16 | 46.08466 | 1.78521 | 33908 ft | 470 kts | 65° |
| 2026-05-05 21:17 | 46.11395 | 1.86936 | 33908 ft | 470 kts | 65° |
| 2026-05-05 21:17 | 46.14314 | 1.95344 | 33911 ft | 470 kts | 65° |
| 2026-05-05 21:18 | 46.17237 | 2.03791 | 33899 ft | 470 kts | 65° |
| 2026-05-05 21:18 | 46.20155 | 2.12254 | 33896 ft | 471 kts | 65° |
| 2026-05-05 21:19 | 46.23049 | 2.20673 | 33899 ft | 471 kts | 65° |
| 2026-05-05 21:19 | 46.25965 | 2.29180 | 33898 ft | 472 kts | 65° |
| 2026-05-05 21:20 | 46.28875 | 2.37680 | 33897 ft | 472 kts | 65° |
| 2026-05-05 21:20 | 46.31784 | 2.46201 | 33882 ft | 472 kts | 66° |
| 2026-05-05 21:21 | 46.34685 | 2.54752 | 33888 ft | 473 kts | 66° |
| 2026-05-05 21:21 | 46.37094 | 2.61866 | 33893 ft | 473 kts | 66° |
| 2026-05-05 21:22 | 46.39986 | 2.70424 | 33893 ft | 473 kts | 66° |
| 2026-05-05 21:22 | 46.43334 | 2.80379 | 33898 ft | 472 kts | 66° |
| 2026-05-05 21:23 | 46.45745 | 2.87565 | 33886 ft | 472 kts | 66° |
| 2026-05-05 21:23 | 46.48595 | 2.96084 | 33890 ft | 472 kts | 66° |
| 2026-05-05 21:24 | 46.51453 | 3.04673 | 33900 ft | 472 kts | 66° |
| 2026-05-05 21:24 | 46.54304 | 3.13259 | 33914 ft | 472 kts | 66° |
| 2026-05-05 21:25 | 46.57158 | 3.21849 | 33911 ft | 472 kts | 66° |
| 2026-05-05 21:25 | 46.59993 | 3.30451 | 33903 ft | 472 kts | 66° |
| 2026-05-05 21:26 | 46.62817 | 3.39071 | 33901 ft | 472 kts | 66° |
| 2026-05-05 21:26 | 46.65636 | 3.47708 | 33903 ft | 472 kts | 66° |
| 2026-05-05 21:27 | 46.68461 | 3.56357 | 33902 ft | 473 kts | 66° |
| 2026-05-05 21:27 | 46.71967 | 3.64458 | 33902 ft | 476 kts | 50° |
| 2026-05-05 21:28 | 46.76772 | 3.71126 | 33909 ft | 477 kts | 43° |
| 2026-05-05 21:28 | 46.81681 | 3.77567 | 33906 ft | 477 kts | 43° |
| 2026-05-05 21:29 | 46.86614 | 3.84067 | 33904 ft | 478 kts | 43° |
| 2026-05-05 21:29 | 46.91546 | 3.90575 | 33909 ft | 477 kts | 43° |
| 2026-05-05 21:30 | 46.96475 | 3.97096 | 33910 ft | 477 kts | 43° |
| 2026-05-05 21:30 | 47.01397 | 4.03633 | 33910 ft | 477 kts | 43° |
| 2026-05-05 21:31 | 47.06311 | 4.10185 | 33907 ft | 477 kts | 43° |
| 2026-05-05 21:31 | 47.11229 | 4.16736 | 33897 ft | 478 kts | 43° |
| 2026-05-05 21:32 | 47.16155 | 4.23306 | 33897 ft | 478 kts | 43° |
| 2026-05-05 21:32 | 47.21044 | 4.29841 | 33898 ft | 478 kts | 43° |
| 2026-05-05 21:33 | 47.25952 | 4.36442 | 33893 ft | 478 kts | 43° |
| 2026-05-05 21:33 | 47.30865 | 4.43068 | 33894 ft | 478 kts | 43° |
| 2026-05-05 21:34 | 47.35769 | 4.49699 | 33903 ft | 477 kts | 43° |
| 2026-05-05 21:34 | 47.40658 | 4.56317 | 33903 ft | 477 kts | 43° |
| 2026-05-05 21:35 | 47.45548 | 4.62961 | 33886 ft | 477 kts | 43° |
| 2026-05-05 21:35 | 47.50410 | 4.69579 | 33882 ft | 478 kts | 43° |
| 2026-05-05 21:36 | 47.55295 | 4.76248 | 33890 ft | 477 kts | 43° |
| 2026-05-05 21:36 | 47.60179 | 4.82915 | 33893 ft | 477 kts | 43° |
| 2026-05-05 21:37 | 47.65068 | 4.89598 | 33882 ft | 477 kts | 43° |
| 2026-05-05 21:37 | 47.69912 | 4.96244 | 33886 ft | 477 kts | 44° |
| 2026-05-05 21:38 | 47.74781 | 5.02950 | 33888 ft | 476 kts | 44° |
| 2026-05-05 21:38 | 47.79636 | 5.09653 | 33867 ft | 476 kts | 44° |
| 2026-05-05 21:39 | 47.84490 | 5.16373 | 33869 ft | 476 kts | 44° |
| 2026-05-05 21:39 | 47.89340 | 5.23104 | 33869 ft | 477 kts | 44° |
| 2026-05-05 21:40 | 47.93601 | 5.30639 | 33868 ft | 474 kts | 53° |
| 2026-05-05 21:40 | 47.97612 | 5.38454 | 33870 ft | 474 kts | 54° |
| 2026-05-05 21:41 | 48.01597 | 5.46245 | 33867 ft | 474 kts | 54° |
| 2026-05-05 21:41 | 48.05604 | 5.54077 | 33843 ft | 474 kts | 54° |
| 2026-05-05 21:42 | 48.09598 | 5.61932 | 33820 ft | 474 kts | 54° |
| 2026-05-05 21:42 | 48.11597 | 5.65870 | 32833 ft | 477 kts | 54° |
| 2026-05-05 21:42 | 48.13622 | 5.69856 | 31528 ft | 483 kts | 54° |
| 2026-05-05 21:43 | 48.15662 | 5.73872 | 30459 ft | 484 kts | 55° |
| 2026-05-05 21:43 | 48.17704 | 5.77898 | 29121 ft | 487 kts | 55° |
| 2026-05-05 21:43 | 48.19749 | 5.81942 | 27895 ft | 486 kts | 55° |
| 2026-05-05 21:43 | 48.21768 | 5.85944 | 26590 ft | 488 kts | 55° |
| 2026-05-05 21:44 | 48.23816 | 5.90014 | 25274 ft | 489 kts | 54° |
| 2026-05-05 21:44 | 48.25866 | 5.94102 | 24008 ft | 490 kts | 54° |
| 2026-05-05 21:44 | 48.27912 | 5.98192 | 22670 ft | 490 kts | 55° |
| 2026-05-05 21:44 | 48.29687 | 6.02521 | 21720 ft | 480 kts | 64° |
| 2026-05-05 21:45 | 48.30976 | 6.07100 | 20732 ft | 473 kts | 73° |
| 2026-05-05 21:45 | 48.31754 | 6.11853 | 19879 ft | 464 kts | 83° |
| 2026-05-05 21:45 | 48.32034 | 6.16634 | 19037 ft | 457 kts | 90° |
| 2026-05-05 21:45 | 48.32139 | 6.21390 | 18215 ft | 453 kts | 89° |
| 2026-05-05 21:46 | 48.32246 | 6.26089 | 17359 ft | 448 kts | 89° |
| 2026-05-05 21:46 | 48.32351 | 6.30739 | 16596 ft | 442 kts | 89° |
| 2026-05-05 21:46 | 48.32449 | 6.35260 | 15871 ft | 436 kts | 90° |
| 2026-05-05 21:46 | 48.32545 | 6.39818 | 15527 ft | 422 kts | 90° |
| 2026-05-05 21:47 | 48.32633 | 6.44134 | 15397 ft | 405 kts | 90° |
| 2026-05-05 21:47 | 48.32717 | 6.48229 | 15261 ft | 390 kts | 90° |
| 2026-05-05 21:47 | 48.32798 | 6.52229 | 15137 ft | 375 kts | 90° |
| 2026-05-05 21:47 | 48.32874 | 6.56076 | 15016 ft | 362 kts | 90° |
| 2026-05-05 21:48 | 48.32946 | 6.59797 | 14892 ft | 350 kts | 90° |
| 2026-05-05 21:48 | 48.33011 | 6.63389 | 14777 ft | 338 kts | 90° |
| 2026-05-05 21:48 | 48.33072 | 6.66870 | 14630 ft | 329 kts | 90° |
| 2026-05-05 21:48 | 48.33130 | 6.70273 | 14389 ft | 324 kts | 91° |
| 2026-05-05 21:49 | 48.33188 | 6.73695 | 13836 ft | 327 kts | 90° |
| 2026-05-05 21:49 | 48.33248 | 6.77077 | 13268 ft | 321 kts | 91° |
| 2026-05-05 21:49 | 48.33307 | 6.80394 | 12841 ft | 310 kts | 91° |
| 2026-05-05 21:49 | 48.33365 | 6.83531 | 12678 ft | 292 kts | 91° |
| 2026-05-05 21:50 | 48.33418 | 6.86523 | 12314 ft | 283 kts | 91° |
| 2026-05-05 21:50 | 48.33468 | 6.89470 | 11924 ft | 281 kts | 91° |
| 2026-05-05 21:50 | 48.33516 | 6.92411 | 11581 ft | 281 kts | 91° |
| 2026-05-05 21:50 | 48.33563 | 6.95347 | 11191 ft | 283 kts | 91° |
| 2026-05-05 21:51 | 48.33609 | 6.98267 | 10796 ft | 277 kts | 91° |
| 2026-05-05 21:51 | 48.33652 | 7.01154 | 10317 ft | 275 kts | 92° |
| 2026-05-05 21:51 | 48.33693 | 7.03975 | 9908 ft | 271 kts | 92° |
| 2026-05-05 21:51 | 48.33736 | 7.06842 | 9484 ft | 270 kts | 92° |
| 2026-05-05 21:52 | 48.33819 | 7.12417 | 8689 ft | 268 kts | 91° |
| 2026-05-05 21:52 | 48.33856 | 7.15222 | 8281 ft | 269 kts | 92° |
| 2026-05-05 21:52 | 48.33890 | 7.18041 | 7916 ft | 269 kts | 91° |
| 2026-05-05 21:53 | 48.33924 | 7.20855 | 7568 ft | 269 kts | 91° |
| 2026-05-05 21:53 | 48.33960 | 7.23666 | 7193 ft | 269 kts | 91° |
| 2026-05-05 21:53 | 48.34002 | 7.26437 | 7051 ft | 261 kts | 89° |
| 2026-05-05 21:53 | 48.34381 | 7.29042 | 6941 ft | 253 kts | 69° |
| 2026-05-05 21:54 | 48.35293 | 7.31282 | 6630 ft | 252 kts | 48° |
| 2026-05-05 21:54 | 48.36445 | 7.33236 | 6261 ft | 255 kts | 47° |
| 2026-05-05 21:54 | 48.37636 | 7.35235 | 5844 ft | 258 kts | 47° |
| 2026-05-05 21:54 | 48.38833 | 7.37259 | 5439 ft | 259 kts | 47° |
| 2026-05-05 21:55 | 48.40035 | 7.39299 | 5031 ft | 262 kts | 47° |
| 2026-05-05 21:55 | 48.41237 | 7.41341 | 4619 ft | 255 kts | 47° |
| 2026-05-05 21:55 | 48.42365 | 7.43262 | 4224 ft | 236 kts | 46° |
| 2026-05-05 21:55 | 48.43418 | 7.45052 | 3878 ft | 223 kts | 47° |
| 2026-05-05 21:56 | 48.44432 | 7.46775 | 3528 ft | 216 kts | 47° |
| 2026-05-05 21:56 | 48.45404 | 7.48429 | 3227 ft | 206 kts | 47° |
| 2026-05-05 21:56 | 48.46338 | 7.50021 | 2879 ft | 198 kts | 47° |
| 2026-05-05 21:56 | 48.47236 | 7.51550 | 2559 ft | 191 kts | 48° |
| 2026-05-05 21:57 | 48.48095 | 7.53015 | 2285 ft | 181 kts | 48° |
| 2026-05-05 21:57 | 48.48894 | 7.54379 | 2014 ft | 168 kts | 49° |
| 2026-05-05 21:57 | 48.49645 | 7.55661 | 1748 ft | 159 kts | 49° |
| 2026-05-05 21:57 | 48.50362 | 7.56885 | 1517 ft | 154 kts | 49° |
| 2026-05-05 21:58 | 48.51051 | 7.58060 | 1281 ft | 149 kts | 49° |
| 2026-05-05 21:58 | 48.51726 | 7.59216 | 1034 ft | 145 kts | 50° |
| 2026-05-05 21:58 | 48.52393 | 7.60354 | 790 ft | 143 kts | 50° |
| 2026-05-05 21:58 | 48.53040 | 7.61462 | 582 ft | 140 kts | 49° |
| 2026-05-05 21:59 | 48.53625 | 7.62473 | 512 ft | 97 kts | 49° |
| 2026-05-05 21:59 | 48.53948 | 7.63024 | 511 ft | 59 kts | 49° |
| 2026-05-05 21:59 | 48.54136 | 7.63346 | 512 ft | 19 kts | 49° |
| 2026-05-05 21:59 | 48.54232 | 7.63378 | 512 ft | 15 kts | 320° |
| 2026-05-05 22:00 | 48.54296 | 7.63279 | 512 ft | 12 kts | 291° |
| 2026-05-05 22:00 | 48.54310 | 7.63167 | 512 ft | 10 kts | 301° |
| 2026-05-05 22:00 | 48.54359 | 7.63102 | 512 ft | 9 kts | 319° |
| 2026-05-05 22:00 | 48.54390 | 7.63032 | 512 ft | 8 kts | 278° |
| 2026-05-05 22:01 | 48.54360 | 7.62946 | 513 ft | 10 kts | 228° |
| 2026-05-05 22:01 | 48.54384 | 7.62895 | 512 ft | 7 kts | 347° |
| 2026-05-05 22:01 | 48.54408 | 7.62888 | 512 ft | 1 kts | 349° |
| 2026-05-05 22:01 | 48.54415 | 7.62886 | 512 ft | 1 kts | 349° |
| 2026-05-05 22:02 | 48.54418 | 7.62885 | 512 ft | 0 kts | 349° |